Time;durP1;ratioP1;P1;durP2;ratioP2;P2;SDS_P1;SDS_P2;PMS_P1;PMS_P2;Temp;Humidity;BMP_temperature;BMP_pressure;BME280_temperature;BME280_humidity;BME280_pressure;Samples;Min_cycle;Max_cycle;Signal;HPM_P1;HPM_P2
2024/03/08 11:16:50;;;;;;;19.27;11.13;;;;;;;6.72;95.28;97580.81;4980108;28;20226;-82
2024/03/08 11:19:31;;;;;;;19.07;10.47;;;;;;;6.86;98.19;97601.78;4979627;28;20222;-82
2024/03/08 11:22:13;;;;;;;19.03;11.50;;;;;;;6.89;99.42;97602.44;4981809;28;20293;-84
2024/03/08 11:24:41;;;;;;;19.00;11.50;;;;;;;6.77;96.67;97582.19;4983142;28;20227;-84
2024/03/08 11:27:09;;;;;;;22.60;11.93;;;;;;;6.60;96.65;97582.41;4981935;28;20242;-85
2024/03/08 11:29:40;;;;;;;17.97;10.27;;;;;;;6.42;97.03;97580.09;4978391;28;20214;-79
2024/03/08 11:32:11;;;;;;;17.57;10.47;;;;;;;6.19;96.99;97581.50;4979557;28;20238;-80
2024/03/08 11:34:38;;;;;;;18.77;11.17;;;;;;;6.01;98.81;97582.59;4980213;28;20214;-81
2024/03/08 11:37:09;;;;;;;20.73;11.60;;;;;;;6.01;100.00;97603.59;4982208;28;20210;-84
2024/03/08 11:39:38;;;;;;;21.23;12.13;;;;;;;6.10;100.00;97600.41;4978813;28;20277;-81
2024/03/08 11:42:05;;;;;;;24.10;12.07;;;;;;;6.17;100.00;97587.75;4978424;28;20698;-81
2024/03/08 11:44:31;;;;;;;25.43;13.07;;;;;;;6.41;100.00;97587.09;4978454;28;20215;-81
2024/03/08 11:46:58;;;;;;;23.60;13.07;;;;;;;6.59;100.00;97580.72;4977666;28;20234;-80
2024/03/08 11:49:26;;;;;;;22.77;11.50;;;;;;;6.75;100.00;97570.97;4978023;28;20266;-82
2024/03/08 11:51:53;;;;;;;27.00;12.57;;;;;;;6.86;100.00;97573.75;4976878;28;20238;-81
2024/03/08 11:54:20;;;;;;;20.50;12.13;;;;;;;6.96;100.00;97580.09;4977519;28;20281;-82
2024/03/08 11:56:48;;;;;;;21.90;12.33;;;;;;;6.93;97.16;97538.28;4977894;28;20213;-80
2024/03/08 11:59:14;;;;;;;21.70;11.83;;;;;;;6.97;95.74;97526.63;4980160;28;20281;-80
2024/03/08 12:01:41;;;;;;;21.33;12.37;;;;;;;7.12;100.00;97554.53;4985267;28;20236;-82
2024/03/08 12:04:07;;;;;;;22.00;12.33;;;;;;;7.16;98.90;97535.03;4980360;28;20206;-80
2024/03/08 12:06:40;;;;;;;23.97;11.90;;;;;;;7.23;99.79;97536.31;4979025;28;20231;-81
2024/03/08 12:09:10;;;;;;;23.37;11.43;;;;;;;7.21;96.46;97506.63;4979102;28;20214;-81
2024/03/08 12:11:37;;;;;;;20.97;11.90;;;;;;;7.27;98.35;97522.00;4980715;28;20235;-82
2024/03/08 12:14:03;;;;;;;21.33;12.13;;;;;;;7.32;97.91;97512.03;4985346;28;20235;-81
2024/03/08 12:16:30;;;;;;;19.13;11.93;;;;;;;7.38;97.38;97509.84;4986086;28;20636;-79
2024/03/08 12:18:57;;;;;;;22.70;11.93;;;;;;;7.48;98.54;97510.06;4977099;28;20218;-82
2024/03/08 12:21:29;;;;;;;18.20;11.20;;;;;;;7.47;95.38;97487.38;4976668;28;20231;-81
2024/03/08 12:24:09;;;;;;;20.77;11.40;;;;;;;7.51;95.91;97479.16;4976796;28;20199;-81
2024/03/08 12:26:37;;;;;;;19.33;12.20;;;;;;;7.57;96.71;97493.66;4976268;28;20267;-81
2024/03/08 12:29:19;;;;;;;21.90;12.23;;;;;;;7.64;98.63;97498.44;4976776;28;20703;-80
2024/03/08 12:31:47;;;;;;;20.43;12.27;;;;;;;7.66;93.77;97477.28;4976545;28;20267;-80
2024/03/08 12:34:14;;;;;;;22.13;11.57;;;;;;;7.68;95.24;97478.00;4976278;28;20215;-81
2024/03/08 12:36:47;;;;;;;21.33;12.00;;;;;;;7.68;92.79;97457.84;4976686;28;20255;-80
2024/03/08 12:39:17;;;;;;;20.13;11.90;;;;;;;7.71;93.07;97456.78;4975995;28;20321;-81
2024/03/08 12:41:46;;;;;;;24.10;12.63;;;;;;;7.71;93.91;97456.78;4976140;28;20236;-82
2024/03/08 12:44:13;;;;;;;21.57;11.87;;;;;;;7.67;92.77;97453.53;4976555;28;20289;-81
2024/03/08 12:46:41;;;;;;;22.87;12.00;;;;;;;7.83;95.58;97469.09;4976242;28;20235;-81
2024/03/08 12:49:08;;;;;;;21.73;12.43;;;;;;;7.94;95.32;97461.28;4975554;28;20218;-82
2024/03/08 12:51:34;;;;;;;23.37;12.73;;;;;;;7.93;93.33;97442.03;4975274;28;20732;-82
2024/03/08 12:54:01;;;;;;;20.50;11.40;;;;;;;7.87;92.93;97439.84;4975510;28;20215;-81
2024/03/08 12:56:33;;;;;;;22.90;12.90;;;;;;;8.04;93.79;97436.03;4975800;28;20214;-82
2024/03/08 12:59:00;;;;;;;21.13;11.77;;;;;;;8.08;90.27;97411.19;4976670;28;20192;-82
2024/03/08 13:01:26;;;;;;;20.50;12.13;;;;;;;8.18;88.52;97396.41;4975332;28;20235;-80
2024/03/08 13:03:53;;;;;;;25.77;13.10;;;;;;;8.24;90.56;97412.66;4975357;28;20624;-81
2024/03/08 13:06:23;;;;;;;19.50;11.63;;;;;;;8.31;91.52;97410.41;4974220;28;20231;-81
2024/03/08 13:08:51;;;;;;;23.37;11.53;;;;;;;8.26;88.37;97386.22;4975467;28;20211;-82
2024/03/08 13:11:17;;;;;;;21.30;12.23;;;;;;;8.22;90.33;97401.41;4975061;28;20240;-82
2024/03/08 13:13:45;;;;;;;18.50;11.07;;;;;;;8.40;87.72;97380.78;4975626;28;20222;-82
2024/03/08 13:16:14;;;;;;;20.83;10.77;;;;;;;8.48;85.83;97365.28;4977454;28;20212;-83
2024/03/08 13:18:41;;;;;;;21.13;11.80;;;;;;;8.53;85.94;97368.41;4974427;28;20274;-79
2024/03/08 13:21:09;;;;;;;22.63;11.53;;;;;;;8.57;86.01;97365.44;4980015;28;20266;-80
2024/03/08 13:23:39;;;;;;;22.37;12.27;;;;;;;8.58;85.59;97358.38;4977720;28;20216;-81
2024/03/08 13:26:05;;;;;;;21.03;11.97;;;;;;;8.65;86.26;97364.88;4977923;28;20218;-83
2024/03/08 13:28:36;;;;;;;21.23;11.40;;;;;;;8.67;84.71;97352.44;4981081;28;20218;-81
2024/03/08 13:31:06;;;;;;;18.37;11.53;;;;;;;8.64;82.51;97339.50;4982507;28;20289;-79
2024/03/08 13:33:35;;;;;;;20.50;11.53;;;;;;;8.66;84.56;97348.13;4978450;28;20679;-78
2024/03/08 13:36:03;;;;;;;25.20;14.02;;;;;;;8.77;85.55;97348.16;4974887;28;20469;-79
2024/03/08 13:38:31;;;;;;;23.20;12.63;;;;;;;8.82;87.07;97352.13;4973132;28;20210;-79
2024/03/08 13:40:58;;;;;;;24.23;12.53;;;;;;;8.91;88.03;97362.00;4974895;28;20239;-79
2024/03/08 13:43:25;;;;;;;21.60;11.60;;;;;;;8.89;85.04;97334.94;4973946;28;20228;-79
2024/03/08 13:45:52;;;;;;;20.63;11.80;;;;;;;8.99;84.57;97333.28;4975127;28;20727;-80
2024/03/08 13:48:20;;;;;;;21.13;11.23;;;;;;;8.99;82.17;97311.38;4975000;28;20655;-80
2024/03/08 13:50:46;;;;;;;19.80;11.77;;;;;;;9.02;84.57;97319.88;4973063;28;20434;-80
2024/03/08 13:53:13;;;;;;;22.55;12.07;;;;;;;9.06;82.65;97313.41;4973846;28;20442;-79
2024/03/08 13:55:40;;;;;;;20.80;12.90;;;;;;;9.06;81.96;97296.75;4973933;28;20897;-79
2024/03/08 13:58:09;;;;;;;22.87;12.30;;;;;;;9.07;81.34;97293.16;4973770;28;20230;-80
2024/03/08 14:00:36;;;;;;;19.10;11.33;;;;;;;9.05;79.17;97290.63;4973172;28;20245;-80
2024/03/08 14:03:05;;;;;;;22.57;12.13;;;;;;;9.09;83.67;97322.88;4974237;28;20265;-79
2024/03/08 14:05:34;;;;;;;18.03;11.60;;;;;;;9.13;81.94;97303.25;4973798;28;20210;-79
2024/03/08 14:08:03;;;;;;;22.13;11.53;;;;;;;9.17;81.71;97294.16;4974112;28;20265;-80
2024/03/08 14:10:31;;;;;;;22.43;11.87;;;;;;;9.19;81.47;97293.03;4973632;28;20612;-78
2024/03/08 14:12:57;;;;;;;19.83;11.30;;;;;;;9.16;81.64;97297.72;4975702;28;20295;-80
2024/03/08 14:15:24;;;;;;;19.70;10.47;;;;;;;9.17;81.02;97283.59;4974788;28;20653;-79
2024/03/08 14:17:55;;;;;;;19.97;11.67;;;;;;;9.21;81.71;97285.03;4973604;28;20262;-80
2024/03/08 14:20:25;;;;;;;23.80;11.97;;;;;;;9.25;79.34;97268.03;4976097;28;20272;-80
2024/03/08 14:22:53;;;;;;;22.43;11.87;;;;;;;9.27;81.10;97274.88;4978561;28;20268;-79
2024/03/08 14:25:19;;;;;;;20.60;11.07;;;;;;;9.30;80.53;97265.88;4978283;28;20307;-79
2024/03/08 14:27:46;;;;;;;20.50;11.03;;;;;;;9.31;80.07;97259.66;4977750;28;20258;-79
2024/03/08 14:30:30;;;;;;;18.90;10.83;;;;;;;9.33;80.30;97258.56;4979192;28;20209;-78
2024/03/08 14:32:58;;;;;;;16.27;10.37;;;;;;;9.40;78.49;97243.09;4978480;28;20213;-79
2024/03/08 14:35:25;;;;;;;18.60;10.63;;;;;;;9.43;80.00;97250.78;4987229;28;20214;-77
2024/03/08 14:37:53;;;;;;;17.67;10.90;;;;;;;9.44;76.81;97226.94;4986212;28;20217;-78
2024/03/08 14:40:22;;;;;;;17.77;10.23;;;;;;;9.48;77.99;97235.44;4977746;28;20679;-78
2024/03/08 14:42:49;;;;;;;19.77;10.87;;;;;;;9.51;78.37;97245.72;4977775;28;20217;-79
2024/03/08 14:45:15;;;;;;;20.40;11.30;;;;;;;9.54;79.58;97256.06;4977226;28;20213;-79
2024/03/08 14:47:42;;;;;;;19.10;10.80;;;;;;;9.54;76.79;97225.22;4978017;28;20327;-80
2024/03/08 14:50:12;;;;;;;20.20;12.10;;;;;;;9.55;76.82;97228.72;4977031;28;20264;-79
2024/03/08 14:52:39;;;;;;;16.93;10.17;;;;;;;9.54;78.27;97229.66;4977662;28;20270;-80
2024/03/08 14:55:09;;;;;;;20.53;11.13;;;;;;;9.57;78.02;97229.41;4986077;28;20234;-80
2024/03/08 14:57:39;;;;;;;19.90;11.40;;;;;;;9.57;78.08;97224.13;4980046;28;20205;-80
2024/03/08 15:00:09;;;;;;;23.37;11.57;;;;;;;9.54;77.54;97209.41;4979446;28;20237;-79
2024/03/08 15:02:36;;;;;;;18.03;11.20;;;;;;;9.53;79.25;97223.53;4980759;28;20210;-79
2024/03/08 15:05:08;;;;;;;19.10;11.23;;;;;;;9.54;78.59;97213.84;4978866;28;20246;-79
2024/03/08 15:07:35;;;;;;;19.87;11.77;;;;;;;9.53;77.78;97207.72;4977680;28;20317;-78
2024/03/08 15:10:02;;;;;;;20.97;11.40;;;;;;;9.54;77.58;97203.28;4979195;28;20614;-80
2024/03/08 15:12:29;;;;;;;20.67;12.03;;;;;;;9.54;78.20;97204.13;4978780;28;20209;-79
2024/03/08 15:14:56;;;;;;;19.70;11.27;;;;;;;9.54;79.56;97209.41;4977881;28;20573;-80
2024/03/08 15:17:24;;;;;;;18.97;11.40;;;;;;;9.51;77.86;97195.63;4976558;28;20584;-80
2024/03/08 15:19:52;;;;;;;20.87;11.70;;;;;;;9.47;78.50;97196.81;4975322;28;20221;-80
2024/03/08 15:22:18;;;;;;;19.13;11.43;;;;;;;9.48;77.74;97177.41;4975437;28;20244;-80
2024/03/08 15:24:45;;;;;;;22.17;11.70;;;;;;;9.49;78.91;97182.53;4978707;28;20221;-81
2024/03/08 15:27:11;;;;;;;22.10;12.20;;;;;;;9.54;79.48;97182.19;4978459;28;20233;-80
2024/03/08 15:29:39;;;;;;;24.63;12.57;;;;;;;9.56;79.07;97175.00;4978629;28;20633;-81
2024/03/08 15:32:07;;;;;;;19.70;11.33;;;;;;;9.55;77.63;97168.03;4979427;28;20227;-80
2024/03/08 15:34:37;;;;;;;18.87;10.17;;;;;;;9.54;77.81;97166.38;4980172;28;20309;-79
2024/03/08 15:37:04;;;;;;;21.13;11.10;;;;;;;9.57;78.86;97168.75;4980189;28;20299;-80
2024/03/08 15:39:33;;;;;;;17.77;10.43;;;;;;;9.58;76.98;97149.31;4979480;28;20652;-81
2024/03/08 15:42:00;;;;;;;17.67;10.40;;;;;;;9.58;79.01;97167.78;4978377;28;20253;-80
2024/03/08 15:44:27;;;;;;;17.87;10.43;;;;;;;9.58;78.57;97165.16;4977256;28;20554;-80
2024/03/08 15:46:55;;;;;;;16.93;9.97;;;;;;;9.54;75.19;97132.91;4978013;28;20214;-80
2024/03/08 15:49:21;;;;;;;17.40;10.63;;;;;;;9.53;75.51;97138.28;4977039;28;20348;-82
2024/03/08 15:51:48;;;;;;;16.87;10.00;;;;;;;9.51;75.62;97130.53;4977706;28;20231;-82
2024/03/08 15:54:14;;;;;;;18.73;10.33;;;;;;;9.49;77.80;97142.16;4977979;28;20249;-82
2024/03/08 15:56:41;;;;;;;18.33;10.57;;;;;;;9.43;80.19;97156.66;4977732;28;20591;-82
2024/03/08 15:59:08;;;;;;;18.43;10.93;;;;;;;9.41;79.46;97149.81;4977915;28;20221;-81
2024/03/08 16:01:35;;;;;;;17.10;9.90;;;;;;;9.35;80.02;97147.69;4978032;28;20237;-82
2024/03/08 16:04:04;;;;;;;18.57;10.50;;;;;;;9.31;81.85;97164.72;4979379;28;20235;-81
2024/03/08 16:06:30;;;;;;;20.47;11.07;;;;;;;9.25;81.66;97157.28;4983096;28;20221;-80
2024/03/08 16:08:59;;;;;;;18.47;9.97;;;;;;;9.21;79.80;97140.88;4984561;28;20232;-83
2024/03/08 16:11:25;;;;;;;18.07;10.00;;;;;;;9.19;79.41;97128.78;4990420;28;20293;-84
2024/03/08 16:13:52;;;;;;;15.20;9.60;;;;;;;9.13;80.75;97138.00;4989648;28;20282;-82
2024/03/08 16:16:18;;;;;;;17.87;10.43;;;;;;;9.08;80.81;97139.34;4985067;28;20307;-83
2024/03/08 16:18:45;;;;;;;15.73;8.80;;;;;;;9.03;81.66;97139.69;4987690;28;20213;-82
2024/03/08 16:21:13;;;;;;;16.87;9.83;;;;;;;8.99;78.58;97121.63;4987851;28;20685;-82
2024/03/08 16:23:39;;;;;;;17.60;9.47;;;;;;;9.00;76.75;97107.47;4989582;28;20280;-83
2024/03/08 16:26:08;;;;;;;18.20;10.13;;;;;;;8.99;77.91;97106.63;4990266;28;20220;-83
2024/03/08 16:28:39;;;;;;;17.97;9.87;;;;;;;8.93;77.59;97101.84;4989257;28;20237;-83
2024/03/08 16:31:07;;;;;;;20.07;10.90;;;;;;;8.87;78.32;97101.50;4989600;28;20272;-83
2024/03/08 16:33:34;;;;;;;20.13;10.33;;;;;;;8.82;78.38;97109.75;4988230;28;20213;-81
2024/03/08 16:36:02;;;;;;;21.60;11.47;;;;;;;8.75;80.92;97134.09;4984511;28;20217;-83
2024/03/08 16:38:30;;;;;;;17.53;10.07;;;;;;;8.68;80.69;97127.59;4985837;28;20210;-83
2024/03/08 16:41:00;;;;;;;16.40;9.47;;;;;;;8.65;78.96;97107.63;4986814;28;20238;-83
2024/03/08 16:43:27;;;;;;;15.83;9.60;;;;;;;8.54;81.50;97128.66;4984400;28;20216;-83
2024/03/08 16:45:55;;;;;;;18.33;10.13;;;;;;;8.45;82.40;97128.53;4985283;28;20564;-83
2024/03/08 16:48:23;;;;;;;13.77;8.47;;;;;;;8.27;83.18;97143.09;4983740;28;20322;-83
2024/03/08 16:50:50;;;;;;;17.33;10.20;;;;;;;8.16;84.38;97145.66;4981738;28;20288;-83
2024/03/08 16:53:17;;;;;;;16.00;9.63;;;;;;;8.05;85.39;97148.25;4982177;28;20206;-83
2024/03/08 16:55:46;;;;;;;18.70;9.93;;;;;;;7.91;85.88;97153.72;4986210;28;20215;-84
2024/03/08 16:58:14;;;;;;;16.50;10.00;;;;;;;7.80;86.16;97146.63;4984343;28;20208;-82
2024/03/08 17:00:41;;;;;;;18.70;10.33;;;;;;;7.71;86.78;97143.81;4983977;28;20246;-83
2024/03/08 17:03:08;;;;;;;15.93;9.60;;;;;;;7.58;87.42;97150.91;4987664;28;20217;-83
2024/03/08 17:05:37;;;;;;;16.87;9.07;;;;;;;7.48;87.38;97153.34;4989765;28;20227;-83
2024/03/08 17:08:05;;;;;;;18.33;10.20;;;;;;;7.43;88.23;97155.50;4989935;28;20232;-83
2024/03/08 17:10:32;;;;;;;17.83;9.40;;;;;;;7.36;88.72;97148.16;4989703;28;20228;-83
2024/03/08 17:13:02;;;;;;;18.03;9.80;;;;;;;7.32;88.26;97141.44;4989332;28;20219;-84
2024/03/08 17:15:31;;;;;;;17.37;9.93;;;;;;;7.23;89.78;97147.38;4989210;28;20210;-81
2024/03/08 17:18:05;;;;;;;15.13;9.80;;;;;;;7.10;90.62;97141.31;4985431;28;20261;-83
2024/03/08 17:20:36;;;;;;;15.67;8.70;;;;;;;6.96;91.15;97149.31;4985951;28;20236;-82
2024/03/08 17:23:05;;;;;;;17.53;10.23;;;;;;;6.82;92.84;97157.31;4979720;28;20215;-79
2024/03/08 17:25:32;;;;;;;17.10;9.67;;;;;;;6.68;93.59;97151.34;4990984;28;20211;-79
2024/03/08 17:28:00;;;;;;;15.60;9.43;;;;;;;6.52;94.54;97148.94;4984747;28;20226;-82
2024/03/08 17:30:29;;;;;;;16.67;9.90;;;;;;;6.39;95.19;97157.75;4986036;28;20237;-81
2024/03/08 17:32:58;;;;;;;18.57;10.43;;;;;;;6.29;95.79;97160.16;4987718;28;20327;-82
2024/03/08 17:35:26;;;;;;;17.23;9.70;;;;;;;6.21;96.93;97154.59;4987187;28;20278;-82
2024/03/08 17:37:55;;;;;;;17.53;10.27;;;;;;;6.13;97.49;97162.13;4988255;28;20203;-82
2024/03/08 17:40:24;;;;;;;19.37;10.27;;;;;;;6.02;98.79;97162.00;4986065;28;20685;-82
2024/03/08 17:42:52;;;;;;;18.03;10.30;;;;;;;5.96;98.66;97156.31;4988325;28;20270;-81
2024/03/08 17:45:20;;;;;;;16.60;9.63;;;;;;;5.91;99.30;97155.78;4988192;28;20210;-83
2024/03/08 17:47:48;;;;;;;18.50;9.63;;;;;;;5.83;99.18;97153.69;4988116;28;20618;-81
2024/03/08 17:50:17;;;;;;;21.57;12.17;;;;;;;5.76;100.00;97157.63;4988311;28;20234;-81
2024/03/08 17:52:44;;;;;;;16.87;9.77;;;;;;;5.69;100.00;97160.72;4989055;28;20214;-82
2024/03/08 17:55:13;;;;;;;17.53;10.17;;;;;;;5.59;100.00;97162.25;4992599;28;20217;-82
2024/03/08 17:57:41;;;;;;;15.87;9.30;;;;;;;5.56;100.00;97165.91;4992138;28;20207;-82
2024/03/08 18:00:17;;;;;;;16.70;9.93;;;;;;;5.52;100.00;97164.44;4992258;28;20585;-83
2024/03/08 18:02:44;;;;;;;16.40;8.50;;;;;;;5.46;100.00;97154.38;4991406;28;20716;-82
2024/03/08 18:05:14;;;;;;;15.43;9.10;;;;;;;5.41;100.00;97156.44;4992685;28;20285;-83
2024/03/08 18:07:41;;;;;;;17.50;9.60;;;;;;;5.27;100.00;97145.16;4992574;28;20214;-81
2024/03/08 18:10:09;;;;;;;14.70;8.60;;;;;;;5.05;100.00;97143.06;4989801;28;20218;-82
2024/03/08 18:12:36;;;;;;;15.80;8.30;;;;;;;4.95;100.00;97152.41;4992468;28;20214;-82
2024/03/08 18:15:03;;;;;;;17.90;9.13;;;;;;;4.92;100.00;97157.84;4992074;28;20217;-82
2024/03/08 18:17:30;;;;;;;14.43;8.70;;;;;;;4.78;100.00;97152.63;4991807;28;20243;-82
2024/03/08 18:19:56;;;;;;;18.47;10.57;;;;;;;4.83;100.00;97153.16;4991445;28;20221;-82
2024/03/08 18:22:24;;;;;;;20.30;11.07;;;;;;;5.05;100.00;97156.16;4991730;28;20252;-82
2024/03/08 18:24:51;;;;;;;17.27;9.17;;;;;;;5.18;100.00;97138.72;4992308;28;20207;-82
2024/03/08 18:27:18;;;;;;;16.87;9.13;;;;;;;5.25;100.00;97129.53;4992506;28;20217;-82
2024/03/08 18:29:44;;;;;;;20.40;10.40;;;;;;;5.24;100.00;97127.00;4992232;28;20623;-82
2024/03/08 18:32:12;;;;;;;17.73;10.00;;;;;;;5.13;100.00;97119.81;4992244;28;20314;-82
2024/03/08 18:34:43;;;;;;;15.77;9.40;;;;;;;5.03;100.00;97124.00;4992170;28;20325;-82
2024/03/08 18:37:12;;;;;;;17.37;10.03;;;;;;;4.98;100.00;97118.19;4983733;28;20213;-81
2024/03/08 18:39:41;;;;;;;18.73;9.83;;;;;;;4.85;100.00;97124.28;4982538;28;20279;-80
2024/03/08 18:42:07;;;;;;;15.97;9.67;;;;;;;4.80;100.00;97127.19;4980373;28;20238;-80
2024/03/08 18:44:34;;;;;;;19.20;10.00;;;;;;;4.74;100.00;97143.28;4982259;28;20231;-81
2024/03/08 18:47:00;;;;;;;17.00;9.87;;;;;;;4.72;100.00;97139.94;4988862;28;20754;-80
2024/03/08 18:49:27;;;;;;;18.83;9.63;;;;;;;4.68;100.00;97133.19;4987885;28;20230;-80
2024/03/08 18:51:54;;;;;;;16.53;8.77;;;;;;;4.66;100.00;97129.84;4981959;28;20321;-81
2024/03/08 18:54:20;;;;;;;16.43;9.43;;;;;;;4.52;100.00;97132.44;4985397;28;20301;-82
2024/03/08 18:56:51;;;;;;;16.73;9.17;;;;;;;4.46;100.00;97140.66;4991564;28;20215;-81
2024/03/08 18:59:18;;;;;;;15.20;8.43;;;;;;;4.38;100.00;97140.28;4993890;28;20616;-82
2024/03/08 19:01:47;;;;;;;16.73;9.17;;;;;;;4.37;100.00;97128.16;4991951;28;20236;-81
2024/03/08 19:04:14;;;;;;;15.23;9.00;;;;;;;4.37;100.00;97127.31;4986755;28;20550;-81
2024/03/08 19:06:41;;;;;;;13.90;8.80;;;;;;;4.38;100.00;97129.84;4981164;28;20264;-81
2024/03/08 19:09:09;;;;;;;15.33;8.70;;;;;;;4.40;100.00;97121.91;4980211;28;20232;-81
2024/03/08 19:11:36;;;;;;;18.40;11.35;;;;;;;4.50;100.00;97118.63;4975396;28;20460;-80
2024/03/08 19:14:04;;;;;;;15.00;8.07;;;;;;;4.54;100.00;97120.13;4983886;28;20219;-79
2024/03/08 19:16:31;;;;;;;15.77;9.00;;;;;;;4.63;100.00;97118.69;4975825;28;20217;-81
2024/03/08 19:18:57;;;;;;;13.83;8.23;;;;;;;4.63;100.00;97109.09;4976431;28;20214;-79
2024/03/08 19:21:24;;;;;;;10.53;7.53;;;;;;;4.74;100.00;97104.03;4976611;28;20243;-81
2024/03/08 19:23:50;;;;;;;13.83;8.00;;;;;;;4.89;98.73;97104.84;4976485;28;20586;-81
2024/03/08 19:26:22;;;;;;;13.73;8.23;;;;;;;4.95;97.94;97096.59;4976846;28;20211;-79
2024/03/08 19:28:48;;;;;;;13.27;7.77;;;;;;;5.00;97.12;97098.00;4974396;28;20238;-79
2024/03/08 19:31:16;;;;;;;14.43;8.63;;;;;;;4.90;97.60;97107.34;4976832;28;20586;-79
2024/03/08 19:33:43;;;;;;;16.07;7.93;;;;;;;4.74;99.12;97111.88;4977295;28;20573;-79
2024/03/08 19:36:12;;;;;;;19.93;10.97;;;;;;;4.56;100.00;97123.47;4979192;28;20218;-78
2024/03/08 19:38:40;;;;;;;15.43;9.37;;;;;;;4.45;100.00;97120.69;4974626;28;20214;-79
2024/03/08 19:41:07;;;;;;;14.57;9.03;;;;;;;4.24;100.00;97127.22;4979233;28;20735;-81
2024/03/08 19:43:34;;;;;;;11.90;7.80;;;;;;;4.05;100.00;97133.63;4979832;28;20217;-81
2024/03/08 19:46:01;;;;;;;15.53;8.00;;;;;;;3.92;100.00;97141.34;4982758;28;20246;-81
2024/03/08 19:48:28;;;;;;;14.30;7.83;;;;;;;3.94;100.00;97138.63;4983510;28;20236;-82
2024/03/08 19:50:58;;;;;;;13.30;7.27;;;;;;;4.02;100.00;97126.81;4982305;28;20240;-81
2024/03/08 19:53:25;;;;;;;14.53;8.33;;;;;;;3.96;100.00;97126.31;4981411;28;20283;-81
2024/03/08 19:55:52;;;;;;;11.53;7.40;;;;;;;3.90;100.00;97127.53;4980990;28;20212;-80
2024/03/08 19:58:19;;;;;;;13.47;8.00;;;;;;;3.83;100.00;97134.03;4980929;28;20265;-80
2024/03/08 20:00:47;;;;;;;14.73;8.00;;;;;;;3.88;100.00;97128.53;4978037;28;20237;-82
2024/03/08 20:03:20;;;;;;;11.17;7.27;;;;;;;3.89;100.00;97122.38;4977176;28;20680;-82
2024/03/08 20:05:48;;;;;;;14.97;8.17;;;;;;;3.82;100.00;97128.91;4977958;28;20219;-82
2024/03/08 20:08:15;;;;;;;10.90;6.80;;;;;;;3.78;100.00;97123.00;4981092;28;20281;-82
2024/03/08 20:10:42;;;;;;;13.27;7.40;;;;;;;3.78;100.00;97127.41;4985659;28;20229;-81
2024/03/08 20:13:08;;;;;;;12.93;7.87;;;;;;;3.86;100.00;97118.16;4986691;28;20264;-82
2024/03/08 20:15:40;;;;;;;10.50;6.90;;;;;;;3.83;99.98;97118.38;4986598;28;20272;-82
2024/03/08 20:18:08;;;;;;;13.37;7.97;;;;;;;3.82;99.96;97114.06;4984498;28;20228;-82
2024/03/08 20:20:39;;;;;;;11.07;6.77;;;;;;;3.68;100.00;97115.81;4987200;28;20233;-81
2024/03/08 20:23:08;;;;;;;13.73;7.43;;;;;;;3.71;100.00;97113.84;4987009;28;20707;-82
2024/03/08 20:25:37;;;;;;;12.63;7.20;;;;;;;3.77;99.87;97110.88;4987457;28;20248;-82
2024/03/08 20:28:05;;;;;;;12.03;6.77;;;;;;;3.78;98.96;97107.34;4986780;28;20223;-82
2024/03/08 20:30:33;;;;;;;11.10;7.23;;;;;;;3.84;98.62;97100.94;4987050;28;20226;-83
2024/03/08 20:33:01;;;;;;;12.20;6.97;;;;;;;3.88;98.05;97089.34;4987763;28;20214;-82
2024/03/08 20:35:29;;;;;;;12.20;6.63;;;;;;;3.91;97.40;97081.34;4988368;28;20267;-82
2024/03/08 20:37:58;;;;;;;11.47;7.03;;;;;;;3.92;97.19;97083.84;4987042;28;20208;-82
2024/03/08 20:40:32;;;;;;;11.80;7.00;;;;;;;3.88;96.79;97084.13;4980055;28;20252;-81
2024/03/08 20:42:59;;;;;;;12.10;6.60;;;;;;;3.84;96.66;97080.84;4976839;28;20217;-81
2024/03/08 20:45:27;;;;;;;12.97;6.93;;;;;;;3.77;96.94;97082.13;4977211;28;20207;-81
2024/03/08 20:47:53;;;;;;;11.73;6.80;;;;;;;3.62;97.78;97090.03;4978756;28;20208;-80
2024/03/08 20:50:23;;;;;;;11.53;6.90;;;;;;;3.58;98.19;97084.16;4980456;28;20248;-81
2024/03/08 20:52:50;;;;;;;13.10;6.97;;;;;;;3.58;97.70;97086.75;4980212;28;20623;-81
2024/03/08 20:55:21;;;;;;;13.67;7.40;;;;;;;3.56;97.66;97083.38;4980231;28;20222;-82
2024/03/08 20:57:49;;;;;;;11.57;6.73;;;;;;;3.60;98.07;97079.66;4980307;28;20224;-82
2024/03/08 21:00:34;;;;;;;12.10;7.20;;;;;;;3.67;98.29;97081.00;4981246;28;20217;-82
2024/03/08 21:03:02;;;;;;;11.43;7.20;;;;;;;3.72;98.37;97073.72;4982171;28;20227;-81
2024/03/08 21:05:29;;;;;;;12.95;8.20;;;;;;;3.82;97.46;97072.25;4979833;28;20442;-81
2024/03/08 21:07:56;;;;;;;13.90;7.70;;;;;;;3.77;96.90;97063.84;4980042;28;20224;-81
2024/03/08 21:10:24;;;;;;;11.73;6.87;;;;;;;3.63;96.87;97074.28;4977495;28;20688;-81
2024/03/08 21:12:54;;;;;;;11.23;6.83;;;;;;;3.61;97.54;97078.72;4978430;28;20255;-79
2024/03/08 21:15:21;;;;;;;11.97;6.67;;;;;;;3.69;96.84;97063.47;4977784;28;20223;-80
2024/03/08 21:17:47;;;;;;;11.30;7.23;;;;;;;3.64;97.40;97068.13;4977658;28;20279;-81
2024/03/08 21:20:17;;;;;;;10.20;6.37;;;;;;;3.58;98.52;97073.69;4977595;28;20328;-80
2024/03/08 21:22:46;;;;;;;9.80;6.17;;;;;;;3.52;99.16;97079.28;4977683;28;20301;-80
2024/03/08 21:25:14;;;;;;;9.57;6.07;;;;;;;3.49;99.49;97082.06;4979728;28;20215;-80
2024/03/08 21:27:40;;;;;;;11.70;6.37;;;;;;;3.43;100.00;97078.97;4986982;28;20310;-78
2024/03/08 21:30:09;;;;;;;12.87;7.00;;;;;;;3.37;100.00;97074.94;4994452;28;20636;-81
2024/03/08 21:32:37;;;;;;;12.67;7.37;;;;;;;3.20;100.00;97088.13;4983789;28;20588;-81
2024/03/08 21:35:06;;;;;;;10.97;6.63;;;;;;;3.15;100.00;97094.53;4983890;28;20211;-81
2024/03/08 21:37:32;;;;;;;12.30;6.00;;;;;;;3.13;100.00;97097.19;4983759;28;20266;-81
2024/03/08 21:39:59;;;;;;;13.07;6.60;;;;;;;3.19;100.00;97102.09;4983561;28;20207;-80
2024/03/08 21:42:26;;;;;;;12.33;7.80;;;;;;;3.21;100.00;97100.25;4983744;28;20310;-80
2024/03/08 21:44:55;;;;;;;11.60;6.57;;;;;;;3.11;100.00;97098.25;4984828;28;20624;-81
2024/03/08 21:47:23;;;;;;;11.17;6.17;;;;;;;3.01;100.00;97103.09;4984206;28;20298;-80
2024/03/08 21:49:50;;;;;;;10.10;6.40;;;;;;;2.97;100.00;97111.19;4983574;28;20236;-80
2024/03/08 21:52:20;;;;;;;10.73;5.90;;;;;;;2.93;100.00;97110.53;4983530;28;20232;-81
2024/03/08 21:54:47;;;;;;;11.37;6.27;;;;;;;2.92;100.00;97114.06;4984625;28;20400;-81
2024/03/08 21:57:13;;;;;;;10.70;6.47;;;;;;;2.99;100.00;97109.38;4983720;28;20235;-81
2024/03/08 21:59:41;;;;;;;10.70;6.63;;;;;;;3.02;100.00;97104.81;4984195;28;20210;-82
2024/03/08 22:02:08;;;;;;;9.20;5.80;;;;;;;3.04;100.00;97102.97;4984627;28;20298;-81
2024/03/08 22:04:36;;;;;;;12.80;6.90;;;;;;;3.05;100.00;97094.19;4986365;28;20219;-81
2024/03/08 22:07:04;;;;;;;10.97;6.67;;;;;;;3.16;100.00;97097.06;4983906;28;20234;-80
2024/03/08 22:09:30;;;;;;;10.60;6.80;;;;;;;3.18;100.00;97082.13;4982342;28;20240;-80
2024/03/08 22:11:57;;;;;;;11.70;5.97;;;;;;;3.11;100.00;97083.41;4981290;28;20606;-80
2024/03/08 22:14:24;;;;;;;9.13;6.00;;;;;;;3.03;100.00;97075.19;4982666;28;20583;-80
2024/03/08 22:16:50;;;;;;;11.47;6.60;;;;;;;3.02;100.00;97077.88;4982144;28;20213;-80
2024/03/08 22:19:18;;;;;;;10.97;6.97;;;;;;;3.14;100.00;97077.19;4983382;28;20551;-81
2024/03/08 22:21:46;;;;;;;10.20;6.63;;;;;;;3.20;100.00;97067.25;4985105;28;20602;-81
2024/03/08 22:24:12;;;;;;;11.03;6.30;;;;;;;3.25;100.00;97065.19;4993571;28;20289;-82
2024/03/08 22:26:39;;;;;;;12.13;6.90;;;;;;;3.27;100.00;97059.88;4995880;28;20287;-82
2024/03/08 22:29:06;;;;;;;12.13;6.47;;;;;;;3.16;100.00;97077.91;4996185;28;20234;-82
2024/03/08 22:31:39;;;;;;;12.77;7.03;;;;;;;3.01;100.00;97077.00;4994681;28;20242;-82
2024/03/08 22:34:06;;;;;;;12.70;7.20;;;;;;;2.97;100.00;97085.09;4996667;28;20216;-82
2024/03/08 22:36:33;;;;;;;10.57;6.80;;;;;;;2.86;100.00;97077.03;4996031;28;20212;-82
2024/03/08 22:39:01;;;;;;;12.27;6.87;;;;;;;2.83;100.00;97087.66;4995916;28;20221;-82
2024/03/08 22:41:30;;;;;;;13.20;7.37;;;;;;;2.74;100.00;97078.56;4990685;28;20651;-82
2024/03/08 22:43:56;;;;;;;13.50;7.83;;;;;;;2.67;100.00;97085.03;4993122;28;20280;-82
2024/03/08 22:46:24;;;;;;;13.33;8.07;;;;;;;2.62;100.00;97092.28;4993120;28;20237;-82